Time;durP1;ratioP1;P1;durP2;ratioP2;P2;SDS_P1;SDS_P2;PMS_P1;PMS_P2;Temp;Humidity;BMP_temperature;BMP_pressure;BME280_temperature;BME280_humidity;BME280_pressure;Samples;Min_cycle;Max_cycle;Signal;HPM_P1;HPM_P2
2021/03/30 00:02:09;;;;;;;7.88;4.45;;;;;;;9.36;49.35;95014.16;4988854;28;20026;-90
2021/03/30 00:04:35;;;;;;;7.22;4.15;;;;;;;9.28;49.43;94993.53;4984886;28;25397;-90
2021/03/30 00:07:00;;;;;;;7.40;4.78;;;;;;;9.33;49.05;94988.31;4994454;28;20045;-90
2021/03/30 00:09:29;;;;;;;6.82;4.45;;;;;;;9.35;48.80;94994.91;4988304;28;20589;-89
2021/03/30 00:11:54;;;;;;;8.98;5.32;;;;;;;9.39;48.83;94987.28;4989941;28;20045;-89
2021/03/30 00:14:22;;;;;;;7.50;5.13;;;;;;;9.34;48.86;94966.13;4990823;28;20042;-89
2021/03/30 00:16:48;;;;;;;12.00;5.30;;;;;;;9.39;48.20;94960.88;4990249;28;20042;-89
2021/03/30 00:19:13;;;;;;;6.75;5.53;;;;;;;9.59;47.97;94982.16;4997011;28;20032;-89
2021/03/30 00:21:39;;;;;;;11.30;5.68;;;;;;;9.53;47.69;94967.31;4991846;28;20635;-91
2021/03/30 00:24:05;;;;;;;11.23;5.72;;;;;;;9.69;47.51;94984.88;4984611;28;20472;-90
2021/03/30 00:26:34;;;;;;;8.73;5.30;;;;;;;9.65;47.07;94969.78;4991348;28;20041;-88
2021/03/30 00:29:03;;;;;;;12.10;5.03;;;;;;;9.67;47.71;94979.06;4993643;28;20033;-90
2021/03/30 00:31:32;;;;;;;7.90;5.25;;;;;;;9.62;47.97;94972.94;4994991;28;20037;-90
2021/03/30 00:33:57;;;;;;;10.30;5.35;;;;;;;9.52;48.30;94976.31;4991037;28;20096;-90
2021/03/30 00:36:23;;;;;;;8.68;4.18;;;;;;;9.27;48.25;94942.63;4993245;28;20048;-91
2021/03/30 00:38:48;;;;;;;10.25;4.63;;;;;;;9.10;47.92;94928.75;4991431;28;20034;-91
2021/03/30 00:41:13;;;;;;;11.35;5.50;;;;;;;9.25;47.48;94943.91;4989422;28;20073;-90
2021/03/30 00:43:39;;;;;;;9.32;4.68;;;;;;;9.27;48.34;94941.81;4993124;28;20104;-90
2021/03/30 00:46:16;;;;;;;8.75;5.00;;;;;;;9.38;49.16;94969.88;4987840;28;20071;-91
2021/03/30 00:48:44;;;;;;;11.95;5.88;;;;;;;9.26;49.00;94963.97;4992660;28;20048;-91
2021/03/30 00:51:09;;;;;;;7.13;4.63;;;;;;;9.30;48.86;94970.31;4989898;28;21015;-91
2021/03/30 00:53:35;;;;;;;7.68;5.00;;;;;;;9.09;49.13;94954.31;4986343;28;20046;-90
2021/03/30 00:56:01;;;;;;;10.85;5.18;;;;;;;9.01;49.24;94943.44;4988881;28;20022;-90
2021/03/30 00:58:26;;;;;;;9.30;5.68;;;;;;;9.17;48.89;94965.47;5005924;28;20033;-90
2021/03/30 01:00:54;;;;;;;7.72;4.85;;;;;;;9.09;49.29;94961.44;4989768;28;20083;-90
2021/03/30 01:03:22;;;;;;;7.25;5.47;;;;;;;8.93;51.12;94949.19;4989916;28;20042;-91
2021/03/30 01:05:49;;;;;;;6.72;4.80;;;;;;;9.14;49.81;94956.19;4993247;28;20073;-87
2021/03/30 01:08:28;;;;;;;7.53;4.43;;;;;;;9.12;50.20;94969.66;4989103;28;20615;-88
2021/03/30 01:11:15;;;;;;;8.10;4.60;;;;;;;9.09;51.28;94956.97;4994457;28;20021;-90
2021/03/30 01:13:55;;;;;;;11.13;6.03;;;;;;;9.18;50.86;94964.44;4990480;28;20030;-90
2021/03/30 01:16:47;;;;;;;8.73;5.55;;;;;;;9.14;50.47;94964.13;4989695;28;20034;-90
2021/03/30 01:19:55;;;;;;;7.85;4.78;;;;;;;9.10;49.52;94958.56;5004672;28;20497;-89
2021/03/30 01:22:23;;;;;;;10.15;6.05;;;;;;;8.97;50.34;94966.09;4988723;28;20571;-91
2021/03/30 01:25:00;;;;;;;6.60;4.68;;;;;;;8.93;49.71;94959.72;4988520;28;20207;-90
2021/03/30 01:27:44;;;;;;;9.95;5.20;;;;;;;8.99;49.42;94967.41;4969774;28;20030;-89
2021/03/30 01:30:13;;;;;;;8.50;5.80;;;;;;;8.77;49.21;94944.78;4990513;28;20676;-91
2021/03/30 01:32:42;;;;;;;8.80;5.80;;;;;;;8.89;49.30;94962.06;4993742;28;20046;-90
2021/03/30 01:35:15;;;;;;;9.52;5.38;;;;;;;8.71;48.75;94925.50;4987933;28;20065;-90
2021/03/30 01:37:45;;;;;;;15.00;5.97;;;;;;;8.92;48.73;94969.47;4991624;28;20385;-90
2021/03/30 01:40:13;;;;;;;9.15;5.22;;;;;;;8.76;48.70;94941.38;4989328;28;20120;-88
2021/03/30 01:42:40;;;;;;;11.93;4.93;;;;;;;8.82;48.41;94958.03;4989559;28;20030;-89
2021/03/30 01:45:07;;;;;;;8.02;5.57;;;;;;;8.84;48.19;94969.94;4989487;28;20045;-89
2021/03/30 01:47:43;;;;;;;10.05;6.72;;;;;;;8.81;48.53;94965.13;4989734;28;20030;-90
2021/03/30 01:50:11;;;;;;;9.73;6.43;;;;;;;8.85;48.29;94957.50;4987661;28;20801;-91
2021/03/30 01:52:38;;;;;;;12.57;6.53;;;;;;;8.82;48.23;94964.09;4992662;28;20026;-90
2021/03/30 01:55:15;;;;;;;10.60;5.60;;;;;;;8.75;48.39;94955.56;4989466;28;20780;-90
2021/03/30 01:57:51;;;;;;;8.75;6.07;;;;;;;8.75;48.44;94960.84;4979443;28;20052;-91
2021/03/30 02:00:25;;;;;;;11.73;5.93;;;;;;;8.75;48.35;94955.56;4990514;28;20068;-90
2021/03/30 02:02:55;;;;;;;9.77;5.50;;;;;;;8.72;48.18;94956.09;4982446;28;20038;-91
2021/03/30 02:05:22;;;;;;;8.23;5.18;;;;;;;8.43;47.92;94909.94;4971828;28;20046;-89
2021/03/30 02:07:52;;;;;;;7.95;5.30;;;;;;;8.45;47.82;94919.19;4972803;28;20027;-83
2021/03/30 02:10:28;;;;;;;8.98;5.82;;;;;;;8.43;47.96;94917.84;4990338;28;20021;-89
2021/03/30 02:12:58;;;;;;;9.98;5.28;;;;;;;8.65;47.41;94940.47;4986043;28;20057;-90
2021/03/30 02:15:23;;;;;;;7.75;5.28;;;;;;;8.54;47.88;94927.44;4989827;28;20499;-90
2021/03/30 02:18:03;;;;;;;9.38;5.97;;;;;;;8.59;47.51;94933.56;5005269;28;20062;-91
2021/03/30 02:20:35;;;;;;;8.70;5.43;;;;;;;8.58;47.42;94925.91;4988370;28;20033;-91
2021/03/30 02:23:05;;;;;;;7.55;5.55;;;;;;;8.59;47.49;94932.78;4987027;28;20445;-89
2021/03/30 02:25:32;;;;;;;10.27;5.95;;;;;;;8.42;47.96;94924.16;4990460;28;20145;-90
2021/03/30 02:28:07;;;;;;;8.32;5.85;;;;;;;8.43;48.10;94931.00;4988836;28;20046;-90
2021/03/30 02:30:44;;;;;;;9.82;5.30;;;;;;;8.39;47.93;94922.00;4990085;28;20038;-90
2021/03/30 02:33:14;;;;;;;15.38;5.07;;;;;;;8.33;48.27;94909.81;4989691;28;20041;-89
2021/03/30 02:35:42;;;;;;;8.60;5.57;;;;;;;8.19;48.57;94904.91;4990048;28;20070;-91
2021/03/30 02:38:10;;;;;;;12.80;7.70;;;;;;;8.03;48.23;94884.72;4982825;28;20057;-84
2021/03/30 02:40:37;;;;;;;11.07;6.40;;;;;;;8.10;48.38;94913.50;4993634;28;20026;-90
2021/03/30 02:43:03;;;;;;;9.85;6.20;;;;;;;8.15;48.94;94930.16;4994226;28;20376;-90
2021/03/30 02:45:30;;;;;;;7.60;5.82;;;;;;;8.25;48.84;94942.66;4976902;28;20049;-90
2021/03/30 02:47:58;;;;;;;8.63;5.38;;;;;;;7.98;48.82;94908.34;4973421;28;20065;-90
2021/03/30 02:50:24;;;;;;;12.88;5.82;;;;;;;7.97;48.83;94906.75;4975029;28;20442;-90
2021/03/30 02:52:52;;;;;;;10.45;5.47;;;;;;;8.01;49.01;94928.13;4988466;28;20056;-88
2021/03/30 02:55:21;;;;;;;10.90;5.60;;;;;;;7.77;48.90;94898.63;4992506;28;20109;-91
2021/03/30 02:57:47;;;;;;;5.97;4.60;;;;;;;7.77;48.76;94896.00;5001784;28;20038;-91
2021/03/30 03:00:14;;;;;;;7.65;5.20;;;;;;;8.00;48.66;94935.22;4985890;28;20046;-90
2021/03/30 03:02:41;;;;;;;9.77;4.93;;;;;;;7.88;48.60;94910.84;4991139;28;20742;-91
2021/03/30 03:05:07;;;;;;;8.02;5.05;;;;;;;7.78;48.44;94913.34;4986347;28;20030;-90
2021/03/30 03:07:34;;;;;;;7.43;5.60;;;;;;;7.77;48.36;94917.03;4991876;28;20026;-89
2021/03/30 03:10:02;;;;;;;7.57;5.20;;;;;;;8.03;48.43;94945.25;4991292;28;20058;-89
2021/03/30 03:12:34;;;;;;;10.15;5.60;;;;;;;7.93;48.14;94942.50;4982356;28;20474;-91
2021/03/30 03:15:03;;;;;;;6.78;5.13;;;;;;;7.99;48.25;94952.06;4980546;28;20096;-87
2021/03/30 03:17:32;;;;;;;7.47;5.03;;;;;;;7.83;48.05;94911.59;4989312;28;20064;-89
2021/03/30 03:19:59;;;;;;;12.25;5.78;;;;;;;7.97;48.64;94950.69;4990816;28;20101;-90
2021/03/30 03:22:28;;;;;;;7.60;5.38;;;;;;;7.65;48.49;94908.44;4989329;28;20543;-91
2021/03/30 03:24:54;;;;;;;13.45;6.28;;;;;;;7.62;48.71;94906.31;4994081;28;20096;-91
2021/03/30 03:27:22;;;;;;;11.55;6.22;;;;;;;7.84;48.70;94944.75;4980412;28;20610;-86
2021/03/30 03:29:48;;;;;;;7.25;5.63;;;;;;;7.78;48.91;94934.41;4979829;28;20073;-89
2021/03/30 03:32:13;;;;;;;8.85;6.07;;;;;;;7.47;49.07;94890.31;4989084;28;20120;-90
2021/03/30 03:34:41;;;;;;;28.55;16.17;;;;;;;7.75;48.75;94927.00;4987470;28;20041;-90
2021/03/30 03:37:07;;;;;;;21.48;12.68;;;;;;;7.81;48.99;94939.19;4989302;28;20109;-90
2021/03/30 03:39:33;;;;;;;16.40;10.02;;;;;;;7.75;49.78;94945.41;4989983;28;20603;-90
2021/03/30 03:41:59;;;;;;;20.35;11.82;;;;;;;7.57;50.08;94932.56;4994545;28;20041;-90
2021/03/30 03:44:28;;;;;;;19.45;12.23;;;;;;;7.62;49.67;94943.16;4991594;28;20042;-90
2021/03/30 03:46:54;;;;;;;9.40;6.30;;;;;;;7.62;49.87;94940.50;4992403;28;20033;-91
2021/03/30 03:49:27;;;;;;;10.95;8.18;;;;;;;7.59;49.80;94936.50;4995986;28;20541;-90
2021/03/30 03:52:12;;;;;;;14.18;5.93;;;;;;;7.32;49.99;94904.84;4994028;28;20042;-90
2021/03/30 03:54:42;;;;;;;7.80;5.95;;;;;;;7.62;49.67;94943.16;4987700;28;20112;-90
2021/03/30 03:57:20;;;;;;;8.57;5.07;;;;;;;7.58;49.86;94940.19;4993065;28;20061;-89
2021/03/30 03:59:46;;;;;;;11.13;6.25;;;;;;;7.30;49.95;94921.88;4992163;28;20062;-90
2021/03/30 04:02:21;;;;;;;8.00;5.38;;;;;;;7.30;50.18;94922.69;4993185;28;20064;-91
2021/03/30 04:05:04;;;;;;;9.77;5.63;;;;;;;7.40;50.09;94954.41;4996906;28;20026;-91
2021/03/30 04:07:35;;;;;;;11.88;6.20;;;;;;;7.26;50.35;94947.88;4990320;28;20073;-83
2021/03/30 04:10:02;;;;;;;11.48;7.95;;;;;;;7.35;50.02;94967.47;4985991;28;20115;-90
2021/03/30 04:12:31;;;;;;;8.75;6.25;;;;;;;7.33;50.44;94972.16;4987267;28;20053;-90
2021/03/30 04:14:57;;;;;;;12.02;8.02;;;;;;;7.30;50.22;94958.69;4994891;28;20044;-89
2021/03/30 04:17:23;;;;;;;7.13;5.28;;;;;;;7.15;50.98;94953.19;4991740;28;20192;-83
2021/03/30 04:19:52;;;;;;;9.98;5.55;;;;;;;7.03;50.24;94923.56;4987794;28;20028;-90
2021/03/30 04:22:18;;;;;;;8.43;6.32;;;;;;;7.29;50.12;94957.09;4995462;28;20041;-91
2021/03/30 04:24:47;;;;;;;10.55;5.45;;;;;;;7.70;49.42;94971.66;4991699;28;20046;-83
2021/03/30 04:27:16;;;;;;;8.55;5.00;;;;;;;7.88;48.86;94971.38;4985319;28;20459;-88
2021/03/30 04:29:42;;;;;;;12.10;4.85;;;;;;;7.83;48.21;94931.84;4997214;28;20463;-89
2021/03/30 04:32:16;;;;;;;7.18;4.75;;;;;;;8.00;47.97;94922.06;4992675;28;20073;-90
2021/03/30 04:34:41;;;;;;;6.72;4.38;;;;;;;8.55;47.01;94955.41;4992288;28;20021;-91
2021/03/30 04:37:06;;;;;;;4.93;3.95;;;;;;;8.89;46.47;94971.81;5010036;28;20360;-91
2021/03/30 04:39:32;;;;;;;8.02;4.15;;;;;;;9.05;45.92;94950.59;4993649;28;20071;-91
2021/03/30 04:41:58;;;;;;;9.68;3.80;;;;;;;9.20;45.27;94930.66;4991306;28;20212;-91
2021/03/30 04:44:23;;;;;;;7.40;3.08;;;;;;;9.54;44.32;94924.84;4991211;28;20038;-92
2021/03/30 04:46:49;;;;;;;9.50;3.53;;;;;;;10.02;43.17;94927.53;4988558;28;20497;-91
2021/03/30 04:49:14;;;;;;;6.47;3.85;;;;;;;10.50;42.42;94943.06;4967788;28;20030;-92
2021/03/30 04:51:39;;;;;;;10.18;5.07;;;;;;;10.85;41.60;94918.53;4988954;28;20677;-92
2021/03/30 04:54:05;;;;;;;11.93;6.30;;;;;;;11.47;40.20;94923.59;4943704;28;20570;-86
2021/03/30 04:56:35;;;;;;;5.05;3.80;;;;;;;12.14;39.10;94960.31;4967126;28;20477;-89
2021/03/30 04:59:04;;;;;;;11.43;4.38;;;;;;;12.83;38.14;94962.16;4994543;28;20030;-88
2021/03/30 05:01:32;;;;;;;8.13;4.55;;;;;;;13.12;38.29;94970.22;4993780;28;20034;-89
2021/03/30 05:03:57;;;;;;;10.63;6.72;;;;;;;13.40;37.61;94966.03;4995498;28;20080;-90
2021/03/30 05:06:23;;;;;;;15.45;7.32;;;;;;;13.94;36.66;94955.22;4993281;28;20045;-90
2021/03/30 05:08:52;;;;;;;10.77;6.57;;;;;;;14.34;37.99;94935.38;4994700;28;20050;-90
2021/03/30 05:11:17;;;;;;;6.95;5.10;;;;;;;14.81;35.21;94915.91;4988293;28;20049;-90
2021/03/30 05:13:44;;;;;;;6.10;4.28;;;;;;;15.09;34.08;94928.31;4992155;28;20022;-90
2021/03/30 05:16:09;;;;;;;7.30;4.78;;;;;;;16.18;33.49;94964.34;4994122;28;20486;-90
2021/03/30 05:18:35;;;;;;;5.00;4.43;;;;;;;17.10;31.32;94958.81;4989354;28;20125;-90
2021/03/30 05:21:03;;;;;;;8.75;5.43;;;;;;;17.71;30.61;94953.66;4987706;28;20037;-89
2021/03/30 05:23:29;;;;;;;27.08;7.90;;;;;;;17.86;30.18;94928.41;4990228;28;20046;-91
2021/03/30 05:25:55;;;;;;;17.95;6.55;;;;;;;18.43;29.73;94945.34;4991365;28;20023;-90
2021/03/30 05:28:20;;;;;;;18.58;6.05;;;;;;;18.26;29.98;94958.69;4993527;28;20034;-91
2021/03/30 05:30:46;;;;;;;19.42;8.45;;;;;;;18.97;28.54;94916.53;4984757;28;20081;-90
2021/03/30 05:33:16;;;;;;;24.45;7.75;;;;;;;19.66;27.38;94949.50;4992336;28;20072;-87
2021/03/30 05:35:44;;;;;;;22.63;7.22;;;;;;;19.74;27.16;94923.81;5004721;28;20037;-90
2021/03/30 05:38:11;;;;;;;21.55;7.45;;;;;;;20.27;26.44;94934.88;4969612;28;20125;-90
2021/03/30 05:40:36;;;;;;;20.85;7.20;;;;;;;20.90;25.85;94941.22;4988187;28;20030;-89
2021/03/30 05:43:08;;;;;;;18.05;6.22;;;;;;;21.56;25.24;94957.53;4994287;28;20041;-91
2021/03/30 05:45:36;;;;;;;13.02;6.38;;;;;;;21.50;24.99;94948.13;4987232;28;20659;-91
2021/03/30 05:48:02;;;;;;;12.43;5.75;;;;;;;21.82;24.45;94933.88;4993173;28;20414;-89
2021/03/30 05:50:33;;;;;;;26.80;12.70;;;;;;;22.25;23.88;94940.75;4989405;28;20038;-91
2021/03/30 05:53:05;;;;;;;51.90;22.42;;;;;;;22.74;22.95;94936.22;4991893;28;20079;-89
2021/03/30 05:55:37;;;;;;;13.25;5.68;;;;;;;22.98;23.01;94924.63;4990259;28;20034;-84
2021/03/30 05:58:05;;;;;;;11.98;5.38;;;;;;;22.73;22.84;94940.03;4992761;28;20665;-91
2021/03/30 06:00:35;;;;;;;8.82;5.05;;;;;;;22.76;23.42;94933.97;4991588;28;20482;-91
2021/03/30 06:03:09;;;;;;;12.32;5.50;;;;;;;23.58;22.24;94943.41;4989091;28;20061;-92
2021/03/30 06:05:35;;;;;;;12.48;5.97;;;;;;;24.38;21.52;94956.78;4988061;28;20277;-86
2021/03/30 06:08:04;;;;;;;13.32;4.85;;;;;;;24.45;20.71;94948.03;4979872;28;20029;-91
2021/03/30 06:10:35;;;;;;;10.48;4.63;;;;;;;25.04;20.05;94931.72;4989099;28;20021;-91
2021/03/30 06:13:03;;;;;;;21.85;13.00;;;;;;;25.43;19.74;94982.06;4985458;28;21783;-91
2021/03/30 06:15:34;;;;;;;13.73;6.03;;;;;;;25.40;20.25;94977.38;4981012;28;20049;-90
2021/03/30 06:18:15;;;;;;;21.65;12.48;;;;;;;26.12;19.52;94977.72;4985822;28;20383;-89
2021/03/30 06:20:43;;;;;;;30.60;17.83;;;;;;;26.63;18.74;94978.25;4985636;28;20942;-91
2021/03/30 06:23:09;;;;;;;20.55;10.65;;;;;;;26.43;18.97;94978.69;4970321;28;20482;-90
2021/03/30 06:25:44;;;;;;;9.20;6.07;;;;;;;27.02;17.93;94976.25;4991254;28;20111;-91
2021/03/30 06:28:31;;;;;;;22.45;9.93;;;;;;;27.52;17.38;94957.97;4990148;28;20043;-90
2021/03/30 06:31:12;;;;;;;7.60;4.90;;;;;;;27.87;17.31;94979.34;4989240;28;20042;-91
2021/03/30 06:33:50;;;;;;;4.85;3.90;;;;;;;27.17;16.84;94980.72;4986003;28;20045;-91
2021/03/30 06:36:20;;;;;;;10.10;6.35;;;;;;;27.05;17.48;94980.16;4977827;28;20037;-92
2021/03/30 06:39:04;;;;;;;14.43;6.25;;;;;;;27.89;17.39;94964.28;4963262;28;20043;-90
2021/03/30 06:41:39;;;;;;;13.25;7.07;;;;;;;28.93;16.61;94979.75;4965244;28;20045;-90
2021/03/30 06:46:52;;;;;;;8.63;6.20;;;;;;;29.59;16.65;94940.53;4993743;28;20113;-91
2021/03/30 06:49:19;;;;;;;11.18;6.20;;;;;;;28.88;16.37;94964.53;4985463;28;20137;-92
2021/03/30 06:51:45;;;;;;;12.30;6.47;;;;;;;29.47;16.03;94947.06;4988916;28;20046;-90
2021/03/30 06:54:11;;;;;;;24.08;6.13;;;;;;;30.39;15.21;94952.91;4980666;28;20076;-89
2021/03/30 06:56:52;;;;;;;14.43;6.03;;;;;;;29.60;15.20;94980.22;4988762;28;20140;-91
2021/03/30 06:59:18;;;;;;;12.25;5.57;;;;;;;28.83;15.58;94932.25;4981959;28;20112;-89
2021/03/30 07:01:46;;;;;;;12.20;4.82;;;;;;;30.48;15.07;94977.09;4991626;28;20022;-91
2021/03/30 07:04:12;;;;;;;10.05;4.88;;;;;;;30.94;14.04;94979.88;4992214;28;20041;-89
2021/03/30 07:06:39;;;;;;;5.28;3.30;;;;;;;30.65;13.29;94961.91;4987095;28;20046;-87
2021/03/30 07:09:09;;;;;;;6.22;3.88;;;;;;;30.26;13.79;94956.38;4987159;28;20125;-87
2021/03/30 07:11:39;;;;;;;7.97;4.28;;;;;;;30.92;13.58;94958.44;4981610;28;20523;-88
2021/03/30 07:14:07;;;;;;;7.63;4.45;;;;;;;30.16;13.86;94924.41;4979211;28;20040;-87
2021/03/30 07:16:54;;;;;;;8.50;4.78;;;;;;;29.72;14.32;94969.00;4981400;28;20030;-88
2021/03/30 07:19:30;;;;;;;6.25;4.15;;;;;;;29.49;14.86;94972.00;4988004;28;20041;-87
2021/03/30 07:22:05;;;;;;;9.23;3.72;;;;;;;30.41;14.27;94966.91;4988929;28;20058;-89
2021/03/30 07:24:45;;;;;;;6.30;3.63;;;;;;;31.48;13.77;94939.66;5000465;28;20510;-89
2021/03/30 07:27:19;;;;;;;7.68;4.13;;;;;;;32.77;12.98;94972.34;4985226;28;20679;-88
2021/03/30 07:29:49;;;;;;;8.00;4.28;;;;;;;32.88;12.17;94970.31;5001334;28;20092;-87
2021/03/30 07:32:24;;;;;;;8.15;4.30;;;;;;;32.49;12.65;94972.50;4987108;28;20049;-88
2021/03/30 07:35:13;;;;;;;7.20;4.40;;;;;;;32.95;12.28;94978.44;4981420;28;20030;-88
2021/03/30 07:38:17;;;;;;;7.07;4.03;;;;;;;32.23;12.65;94988.25;4989376;28;20037;-87
2021/03/30 07:40:49;;;;;;;6.80;4.22;;;;;;;30.84;12.78;94935.03;4982248;28;20045;-86
2021/03/30 07:43:33;;;;;;;8.15;4.20;;;;;;;31.12;12.69;94947.16;4963428;28;20933;-84
2021/03/30 07:46:04;;;;;;;6.55;4.13;;;;;;;31.24;12.59;94974.81;4980443;28;20518;-87
2021/03/30 07:48:34;;;;;;;6.68;4.43;;;;;;;30.93;12.68;94965.47;4981421;28;20063;-88
2021/03/30 07:51:10;;;;;;;5.85;3.58;;;;;;;31.54;12.83;94962.66;4978300;28;20111;-89
2021/03/30 07:53:45;;;;;;;4.93;4.38;;;;;;;33.07;12.46;94986.19;4979161;28;20069;-88
2021/03/30 07:56:47;;;;;;;4.47;3.80;;;;;;;33.73;11.67;94927.66;4955864;28;20402;-88
2021/03/30 07:59:50;;;;;;;8.00;3.65;;;;;;;34.77;11.28;94978.84;4979215;28;20053;-89
2021/03/30 08:02:26;;;;;;;5.15;3.63;;;;;;;34.53;10.90;94963.50;4980405;28;20495;-85
2021/03/30 08:05:09;;;;;;;5.13;3.63;;;;;;;34.27;10.84;94986.97;4985607;28;20450;-90
2021/03/30 08:07:49;;;;;;;9.18;4.32;;;;;;;33.50;11.65;94985.84;4985057;28;20044;-87
2021/03/30 08:10:33;;;;;;;7.53;4.63;;;;;;;33.52;11.51;94991.69;4987396;28;20044;-86
2021/03/30 08:13:27;;;;;;;6.40;4.33;;;;;;;32.30;12.22;94992.16;4996620;28;20125;-86
2021/03/30 08:15:55;;;;;;;10.32;6.10;;;;;;;32.03;12.57;94995.34;4984810;28;20034;-91
2021/03/30 08:18:23;;;;;;;166.48;75.93;;;;;;;32.28;11.92;94972.63;4983747;28;20064;-90
2021/03/30 08:21:14;;;;;;;7.22;4.82;;;;;;;32.44;12.35;94981.91;4984818;28;20041;-91
2021/03/30 08:24:05;;;;;;;11.57;4.47;;;;;;;31.84;12.50;94984.88;4998395;28;20054;-92
2021/03/30 08:26:33;;;;;;;6.63;4.20;;;;;;;31.95;12.53;94977.44;4988783;28;20030;-91
2021/03/30 08:29:22;;;;;;;6.50;4.63;;;;;;;32.59;11.91;94960.72;4992278;28;20080;-88
2021/03/30 08:31:55;;;;;;;7.32;4.30;;;;;;;32.46;11.78;94956.88;5009522;28;20601;-91
2021/03/30 08:34:22;;;;;;;5.05;3.95;;;;;;;33.68;10.82;94964.53;4995557;28;20030;-89
2021/03/30 08:36:56;;;;;;;4.35;3.47;;;;;;;33.37;11.49;94965.63;4992699;28;20543;-90
2021/03/30 08:39:21;;;;;;;5.07;3.55;;;;;;;34.59;11.07;94983.81;4991649;28;20164;-91
2021/03/30 08:41:47;;;;;;;4.40;3.67;;;;;;;35.42;10.16;94973.13;4993112;28;21058;-90
2021/03/30 08:44:21;;;;;;;6.60;4.50;;;;;;;35.83;9.96;94972.78;4989369;28;20276;-91
2021/03/30 08:46:47;;;;;;;;;;;;;;;36.76;10.51;94975.19;4995294;28;20026;-91
2021/03/30 08:49:44;;;;;;;70.97;45.63;;;;;;;37.65;9.54;94976.56;4991497;28;20432;-90
2021/03/30 08:52:17;;;;;;;8.52;4.47;;;;;;;36.73;9.32;94959.53;4994107;28;20529;-90
2021/03/30 08:54:54;;;;;;;;;;;;;;;36.00;10.10;94979.91;4989602;28;20033;-90
2021/03/30 08:57:27;;;;;;;7.05;4.30;;;;;;;34.22;10.98;94970.97;4976016;28;19976;-90
2021/03/30 08:59:53;;;;;;;8.00;4.30;;;;;;;32.63;11.27;94981.44;4984326;28;20857;-89
2021/03/30 09:02:26;;;;;;;6.32;3.85;;;;;;;31.81;12.14;94983.69;4984598;28;20063;-90
2021/03/30 09:04:56;;;;;;;4.40;3.60;;;;;;;31.35;11.78;94972.88;4988955;28;20033;-91
2021/03/30 09:07:21;;;;;;;4.03;3.60;;;;;;;31.58;11.82;94975.19;4995449;28;20252;-90
2021/03/30 09:09:48;;;;;;;5.43;3.55;;;;;;;31.59;12.30;94960.34;5007393;28;20743;-90
2021/03/30 09:12:24;;;;;;;6.40;3.70;;;;;;;33.05;11.57;94966.63;4989678;28;20069;-92
2021/03/30 09:15:02;;;;;;;6.80;3.58;;;;;;;34.91;9.97;94957.84;4965438;28;20042;-92
2021/03/30 09:17:31;;;;;;;4.60;3.20;;;;;;;35.77;9.90;94944.22;4967737;28;20048;-92
2021/03/30 09:20:00;;;;;;;8.45;3.08;;;;;;;35.71;9.78;94945.91;4989674;28;20120;-91
2021/03/30 09:22:30;;;;;;;8.63;2.85;;;;;;;35.92;9.68;94970.25;5004584;28;20144;-91
2021/03/30 09:27:40;;;;;;;6.50;3.15;;;;;;;35.43;9.95;94956.19;4993340;28;20766;-91
2021/03/30 09:30:14;;;;;;;7.13;3.22;;;;;;;34.94;10.17;94943.28;4989649;28;20338;-90
2021/03/30 09:32:43;;;;;;;;;;;;;;;33.42;11.29;94965.97;4993018;28;20119;-86
2021/03/30 09:35:23;;;;;;;5.65;4.30;;;;;;;31.54;12.03;94938.09;4975216;28;20034;-88
2021/03/30 09:38:02;;;;;;;5.70;3.75;;;;;;;30.13;13.25;94969.59;4977559;28;20058;-89
2021/03/30 09:40:40;;;;;;;6.22;3.30;;;;;;;30.77;11.76;94964.28;4994403;28;20068;-92
2021/03/30 09:43:22;;;;;;;4.93;3.63;;;;;;;30.69;12.15;94960.00;4991261;28;20100;-84
2021/03/30 09:45:51;;;;;;;6.30;3.45;;;;;;;30.47;11.70;94946.31;4993136;28;20103;-90
2021/03/30 09:48:17;;;;;;;6.10;3.55;;;;;;;30.64;12.34;94960.38;4991874;28;20062;-92
2021/03/30 09:50:52;;;;;;;10.52;5.60;;;;;;;30.63;12.86;94896.06;4976079;28;20514;-92
2021/03/30 09:53:20;;;;;;;4.38;3.17;;;;;;;30.97;12.35;94919.06;4997131;28;20177;-90
2021/03/30 09:55:46;;;;;;;5.43;3.63;;;;;;;30.78;12.62;94927.63;4988536;28;20030;-91
2021/03/30 09:58:16;;;;;;;4.70;3.30;;;;;;;30.38;12.30;94934.97;4994076;28;20217;-91
2021/03/30 10:00:48;;;;;;;5.82;4.05;;;;;;;30.31;12.86;94883.13;4990939;28;20691;-91
2021/03/30 10:03:15;;;;;;;6.15;3.80;;;;;;;29.95;13.07;94903.34;4984560;28;20074;-89
2021/03/30 10:05:42;;;;;;;4.82;3.45;;;;;;;30.17;13.33;94882.34;4973668;28;20076;-88
2021/03/30 10:08:21;;;;;;;7.68;4.07;;;;;;;29.48;13.71;94902.34;4988655;28;20126;-88
2021/03/30 10:10:50;;;;;;;5.35;3.80;;;;;;;28.66;14.26;94930.91;4990957;28;20034;-91
2021/03/30 10:13:33;;;;;;;4.80;3.60;;;;;;;26.18;16.04;94902.34;4988701;28;20041;-90
2021/03/30 10:16:01;;;;;;;7.70;4.75;;;;;;;24.52;16.80;94894.97;4990643;28;20576;-88
2021/03/30 10:18:30;;;;;;;6.47;4.35;;;;;;;24.91;17.98;94922.16;4979237;28;20917;-90
2021/03/30 10:21:13;;;;;;;5.47;3.88;;;;;;;24.95;17.44;94925.72;4981437;28;20037;-84
2021/03/30 10:23:52;;;;;;;7.50;3.88;;;;;;;24.12;17.19;94891.63;4987580;28;20053;-90
2021/03/30 10:26:25;;;;;;;7.93;3.53;;;;;;;24.28;17.89;94921.38;4983194;28;20035;-89
2021/03/30 10:28:52;;;;;;;6.28;4.07;;;;;;;23.78;18.09;94906.56;4967548;28;20034;-89
2021/03/30 10:31:51;;;;;;;5.75;4.47;;;;;;;22.19;19.71;94885.53;4993256;28;20522;-90
2021/03/30 10:34:30;;;;;;;12.65;4.03;;;;;;;22.15;19.63;94900.78;4989005;28;20380;-91
2021/03/30 10:37:02;;;;;;;9.65;4.85;;;;;;;22.11;19.80;94876.44;4982740;28;20066;-90
2021/03/30 10:39:44;;;;;;;12.95;3.83;;;;;;;21.63;19.85;94879.78;4980446;28;20053;-85
2021/03/30 10:42:15;;;;;;;6.85;4.30;;;;;;;21.40;20.54;94917.03;4971992;28;20482;-92
2021/03/30 10:44:46;;;;;;;10.50;3.75;;;;;;;20.55;21.22;94892.28;4987754;28;20609;-90
2021/03/30 10:47:23;;;;;;;5.72;4.40;;;;;;;20.33;21.87;94874.53;4987964;28;20069;-86
2021/03/30 10:49:55;;;;;;;9.48;4.05;;;;;;;20.04;22.61;94903.19;4985642;28;20037;-90
2021/03/30 10:52:24;;;;;;;8.50;4.43;;;;;;;19.67;22.39;94861.81;4990783;28;20029;-87
2021/03/30 10:54:53;;;;;;;7.32;4.25;;;;;;;19.81;22.15;94906.09;4991590;28;20052;-87
2021/03/30 10:57:19;;;;;;;7.53;4.75;;;;;;;19.32;22.06;94851.13;4985583;28;20936;-89
2021/03/30 10:59:46;;;;;;;8.45;5.13;;;;;;;19.36;22.58;94888.78;4991484;28;20398;-87
2021/03/30 11:02:17;;;;;;;9.48;6.15;;;;;;;19.31;22.97;94903.13;4985521;28;20038;-90
2021/03/30 11:04:43;;;;;;;13.25;4.68;;;;;;;19.27;22.84;94877.28;4977174;28;20030;-85
2021/03/30 11:07:11;;;;;;;10.13;4.70;;;;;;;19.17;23.70;94891.78;4988596;28;20088;-92
2021/03/30 11:09:41;;;;;;;7.38;4.55;;;;;;;19.30;22.80;94864.03;4993268;28;20656;-91
2021/03/30 11:12:08;;;;;;;16.83;4.85;;;;;;;18.98;22.99;94843.91;4981673;28;20077;-91
2021/03/30 11:14:36;;;;;;;6.35;4.18;;;;;;;18.95;23.28;94891.97;4982403;28;20034;-92
2021/03/30 11:57:24;;;;;;;7.45;4.70;;;;;;;17.18;25.26;94817.31;4918776;23;20062;-89
2021/03/30 11:59:52;;;;;;;7.78;4.95;;;;;;;17.66;24.36;94844.16;4955824;28;20175;-90
2021/03/30 12:02:18;;;;;;;6.65;4.50;;;;;;;17.73;24.59;94812.44;4940089;28;20133;-87
2021/03/30 12:04:43;;;;;;;6.40;3.90;;;;;;;17.87;24.19;94809.66;4962076;28;20033;-84
2021/03/30 12:07:09;;;;;;;8.55;3.85;;;;;;;17.79;24.68;94804.28;4937085;28;20396;-88
2021/03/30 12:09:34;;;;;;;13.77;3.97;;;;;;;17.90;25.33;94816.25;4961102;28;20384;-89
2021/03/30 12:12:00;;;;;;;8.45;4.07;;;;;;;17.44;25.14;94820.13;4951317;28;20464;-87
2021/03/30 12:14:28;;;;;;;7.53;4.05;;;;;;;17.30;25.44;94824.75;4944952;28;20046;-90
2021/03/30 12:16:53;;;;;;;4.97;4.05;;;;;;;16.92;25.75;94796.84;4956831;28;20057;-89
2021/03/30 12:19:19;;;;;;;8.38;4.75;;;;;;;16.47;26.08;94799.44;4963624;28;20034;-87
2021/03/30 12:21:45;;;;;;;6.63;4.10;;;;;;;16.72;25.99;94809.56;4960850;28;21177;-86
2021/03/30 12:24:11;;;;;;;5.60;4.18;;;;;;;16.70;26.05;94806.44;4942872;28;20042;-90
2021/03/30 12:26:37;;;;;;;7.97;4.35;;;;;;;16.81;25.75;94778.38;4962201;28;20034;-88
2021/03/30 12:29:38;;;;;;;7.85;4.15;;;;;;;17.42;26.02;94779.56;4937012;28;20641;-88
2021/03/30 12:32:04;;;;;;;20.60;10.80;;;;;;;17.57;26.45;94749.75;4954959;28;20299;-83
2021/03/30 12:34:30;;;;;;;9.20;4.50;;;;;;;17.65;25.02;94767.72;4959524;28;20407;-89
2021/03/30 12:36:58;;;;;;;6.00;3.72;;;;;;;17.38;25.17;94767.91;4956975;28;20038;-85
2021/03/30 12:39:24;;;;;;;8.27;4.70;;;;;;;17.36;25.38;94755.94;4933145;28;20627;-89